Time;durP1;ratioP1;P1;durP2;ratioP2;P2;SDS_P1;SDS_P2;PMS_P1;PMS_P2;Temp;Humidity;BMP_temperature;BMP_pressure;BME280_temperature;BME280_humidity;BME280_pressure;Samples;Min_cycle;Max_cycle;Signal;HPM_P1;HPM_P2
2023/03/06 00:02:11;;;;;;;6.18;5.63;;;4.90;99.90;;;;;;5094255;28;20223;-79
2023/03/06 00:04:38;;;;;;;9.65;8.30;;;4.90;99.90;;;;;;5093668;28;20223;-79
2023/03/06 00:07:06;;;;;;;8.27;6.80;;;4.90;99.90;;;;;;5094481;28;20223;-74
2023/03/06 00:09:33;;;;;;;8.07;7.13;;;4.80;99.90;;;;;;5092685;28;20232;-75
2023/03/06 00:11:59;;;;;;;7.53;6.00;;;4.80;99.90;;;;;;5093617;28;20228;-75
2023/03/06 00:14:27;;;;;;;6.55;5.68;;;4.80;99.90;;;;;;5093759;28;20235;-75
2023/03/06 00:16:56;;;;;;;8.32;6.88;;;4.80;99.90;;;;;;5093896;28;20298;-75
2023/03/06 00:19:23;;;;;;;7.50;6.80;;;4.80;99.90;;;;;;5093736;28;20227;-75
2023/03/06 00:21:50;;;;;;;7.80;7.00;;;4.80;99.90;;;;;;5093867;28;20248;-75
2023/03/06 00:24:17;;;;;;;7.13;5.75;;;4.80;99.90;;;;;;5093853;28;20626;-75
2023/03/06 00:26:44;;;;;;;8.88;6.40;;;4.80;99.90;;;;;;5093636;28;20230;-75
2023/03/06 00:29:11;;;;;;;9.57;6.97;;;4.80;99.90;;;;;;5093575;28;20251;-75
2023/03/06 00:31:38;;;;;;;8.73;7.57;;;4.80;99.90;;;;;;5093038;28;20288;-75
2023/03/06 00:34:06;;;;;;;7.78;6.18;;;4.80;99.90;;;;;;5093660;28;20226;-75
2023/03/06 00:36:33;;;;;;;6.75;5.93;;;4.80;99.90;;;;;;5093396;28;20227;-75
2023/03/06 00:39:00;;;;;;;6.90;5.75;;;4.80;99.90;;;;;;5093288;28;20277;-75
2023/03/06 00:41:29;;;;;;;11.23;6.75;;;4.80;99.90;;;;;;5092875;28;20677;-78
2023/03/06 00:43:56;;;;;;;5.70;5.10;;;4.80;99.90;;;;;;5093437;28;20219;-78
2023/03/06 00:46:23;;;;;;;6.68;5.70;;;4.80;99.90;;;;;;5093567;28;20223;-79
2023/03/06 00:48:50;;;;;;;7.75;5.70;;;4.80;99.90;;;;;;5092562;28;20665;-79
2023/03/06 00:51:20;;;;;;;5.60;5.05;;;4.80;99.90;;;;;;5093250;28;20238;-75
2023/03/06 00:53:48;;;;;;;5.28;4.88;;;4.80;99.90;;;;;;5089972;28;20231;-75
2023/03/06 00:56:15;;;;;;;6.00;5.10;;;4.80;99.90;;;;;;5093283;28;20223;-75
2023/03/06 00:58:42;;;;;;;7.95;4.60;;;4.70;99.90;;;;;;5092927;28;20235;-79
2023/03/06 01:01:09;;;;;;;6.70;5.50;;;4.70;99.90;;;;;;5093147;28;20251;-79
2023/03/06 01:03:36;;;;;;;6.32;5.10;;;4.70;99.90;;;;;;5092284;28;20247;-79
2023/03/06 01:06:03;;;;;;;5.55;4.90;;;4.70;99.90;;;;;;5091959;28;20223;-78
2023/03/06 01:08:32;;;;;;;8.30;6.63;;;4.70;99.90;;;;;;5092552;28;20227;-76
2023/03/06 01:10:59;;;;;;;7.45;5.75;;;4.70;99.90;;;;;;5092834;28;20537;-78
2023/03/06 01:13:26;;;;;;;6.70;6.03;;;4.70;99.90;;;;;;5093020;28;20661;-78
2023/03/06 01:15:53;;;;;;;6.20;4.93;;;4.70;99.90;;;;;;5092632;28;20288;-78
2023/03/06 01:18:20;;;;;;;5.18;4.35;;;4.80;99.90;;;;;;5092591;28;20279;-74
2023/03/06 01:20:47;;;;;;;4.95;4.45;;;4.70;99.90;;;;;;5092146;28;20276;-74
2023/03/06 01:23:14;;;;;;;5.00;4.50;;;4.70;99.90;;;;;;5093174;28;20719;-78
2023/03/06 01:25:43;;;;;;;4.80;4.40;;;4.70;99.90;;;;;;5091893;28;20251;-74
2023/03/06 01:28:10;;;;;;;6.28;4.82;;;4.70;99.90;;;;;;5092719;28;20242;-78
2023/03/06 01:30:37;;;;;;;4.95;4.55;;;4.70;99.90;;;;;;5092271;28;20276;-74
2023/03/06 01:33:04;;;;;;;5.32;4.82;;;4.70;99.90;;;;;;5092242;28;20738;-74
2023/03/06 01:35:31;;;;;;;4.50;4.10;;;4.70;99.90;;;;;;5092963;28;20234;-74
2023/03/06 01:37:58;;;;;;;5.30;4.80;;;4.70;99.90;;;;;;5092623;28;20250;-78
2023/03/06 01:40:25;;;;;;;6.88;5.68;;;4.70;99.90;;;;;;5092541;28;20219;-74
2023/03/06 01:42:54;;;;;;;5.05;4.55;;;4.70;99.90;;;;;;5092032;28;20740;-75
2023/03/06 01:45:58;;;;;;;6.03;4.68;;;4.70;99.90;;;;;;5093635;28;20280;-74
2023/03/06 01:48:25;;;;;;;5.60;5.07;;;4.70;99.90;;;;;;5092985;28;20231;-78
2023/03/06 01:50:53;;;;;;;5.55;5.05;;;4.70;99.90;;;;;;5093281;28;20249;-78
2023/03/06 01:53:21;;;;;;;6.22;5.65;;;4.70;99.90;;;;;;5092302;28;20235;-79
2023/03/06 01:55:48;;;;;;;6.30;5.70;;;4.70;99.90;;;;;;5093921;28;20238;-79
2023/03/06 01:58:18;;;;;;;7.05;6.38;;;4.70;99.90;;;;;;5093180;28;20314;-79
2023/03/06 02:00:49;;;;;;;8.02;6.07;;;4.70;99.90;;;;;;5091454;28;20231;-75
2023/03/06 02:03:21;;;;;;;6.68;6.07;;;4.70;99.90;;;;;;5092694;28;20314;-76
2023/03/06 02:05:48;;;;;;;7.00;6.07;;;4.70;99.90;;;;;;5093470;28;20626;-79
2023/03/06 02:08:18;;;;;;;7.50;6.35;;;4.70;99.90;;;;;;5093024;28;20239;-80
2023/03/06 02:10:58;;;;;;;6.97;6.38;;;4.70;99.90;;;;;;5093863;28;20223;-75
2023/03/06 02:13:28;;;;;;;6.80;6.20;;;4.70;99.90;;;;;;5095189;28;20227;-79
2023/03/06 02:15:55;;;;;;;6.63;6.05;;;4.80;99.90;;;;;;5092924;28;20284;-75
2023/03/06 02:18:23;;;;;;;7.05;6.35;;;4.80;99.90;;;;;;5086501;28;20297;-75
2023/03/06 02:20:54;;;;;;;6.65;5.95;;;4.80;99.90;;;;;;5095412;28;20272;-79
2023/03/06 02:23:29;;;;;;;7.13;6.43;;;4.90;99.90;;;;;;5095933;28;20280;-75
2023/03/06 02:25:59;;;;;;;6.72;6.13;;;4.90;99.90;;;;;;5096181;28;20222;-80
2023/03/06 02:28:26;;;;;;;7.50;6.20;;;5.00;99.90;;;;;;5096276;28;20235;-79
2023/03/06 02:30:55;;;;;;;6.93;6.22;;;5.00;99.90;;;;;;5095670;28;20218;-79
2023/03/06 02:33:24;;;;;;;7.75;5.80;;;5.00;99.90;;;;;;5096399;28;20719;-79
2023/03/06 02:35:56;;;;;;;6.70;5.82;;;5.10;99.90;;;;;;5095612;28;20228;-75
2023/03/06 02:38:27;;;;;;;7.85;6.93;;;5.20;99.90;;;;;;5095756;28;20314;-75
2023/03/06 02:40:56;;;;;;;6.45;5.82;;;5.20;99.90;;;;;;5095902;28;20301;-76
2023/03/06 02:43:31;;;;;;;7.35;5.97;;;5.20;99.90;;;;;;5095881;28;20306;-75
2023/03/06 02:45:58;;;;;;;6.70;6.00;;;5.30;99.90;;;;;;5095293;28;20222;-75
2023/03/06 02:48:25;;;;;;;7.50;5.78;;;5.30;99.90;;;;;;5096080;28;20223;-79
2023/03/06 02:50:55;;;;;;;8.07;5.90;;;5.40;99.90;;;;;;5094908;28;20703;-79
2023/03/06 02:53:22;;;;;;;8.13;5.93;;;5.40;99.90;;;;;;5095220;28;20259;-79
2023/03/06 02:55:50;;;;;;;6.53;5.85;;;5.40;99.90;;;;;;5095243;28;20247;-79
2023/03/06 02:58:18;;;;;;;5.30;4.80;;;5.40;99.90;;;;;;5095331;28;20223;-75
2023/03/06 03:00:47;;;;;;;7.00;5.55;;;5.50;99.90;;;;;;5094444;28;20276;-79
2023/03/06 03:03:15;;;;;;;6.10;5.50;;;5.50;99.90;;;;;;5096030;28;20621;-79
2023/03/06 03:05:42;;;;;;;9.27;6.72;;;5.60;99.90;;;;;;5094953;28;20219;-79
2023/03/06 03:08:09;;;;;;;9.75;7.43;;;5.60;99.90;;;;;;5086655;28;20684;-79
2023/03/06 03:10:36;;;;;;;8.98;8.07;;;5.60;99.90;;;;;;5095393;28;20219;-79
2023/03/06 03:13:03;;;;;;;8.07;7.35;;;5.60;99.90;;;;;;5094619;28;20223;-79
2023/03/06 03:15:30;;;;;;;7.43;6.72;;;5.60;99.90;;;;;;5094760;28;20223;-75
2023/03/06 03:18:01;;;;;;;8.13;7.25;;;5.70;99.90;;;;;;5094093;28;20235;-79
2023/03/06 03:20:28;;;;;;;11.35;10.25;;;5.70;99.90;;;;;;5095503;28;20219;-79
2023/03/06 03:22:55;;;;;;;11.93;10.82;;;5.70;99.90;;;;;;5094587;28;20560;-76
2023/03/06 03:25:24;;;;;;;13.07;9.95;;;5.70;99.90;;;;;;5095122;28;20222;-79
2023/03/06 03:27:51;;;;;;;9.55;8.65;;;5.70;99.90;;;;;;5094409;28;20565;-79
2023/03/06 03:30:19;;;;;;;10.52;9.45;;;5.70;99.90;;;;;;5093386;28;20288;-79
2023/03/06 03:32:46;;;;;;;9.07;8.00;;;5.70;99.90;;;;;;5094546;28;20220;-76
2023/03/06 03:35:15;;;;;;;9.00;8.15;;;5.70;99.90;;;;;;5094849;28;20671;-75
2023/03/06 03:37:42;;;;;;;10.20;9.30;;;5.70;99.90;;;;;;5093983;28;20239;-77
2023/03/06 03:40:11;;;;;;;9.80;8.90;;;5.70;99.90;;;;;;5095014;28;20280;-75
2023/03/06 03:42:38;;;;;;;8.25;7.32;;;5.70;99.90;;;;;;5095214;28;20238;-75
2023/03/06 03:45:06;;;;;;;8.20;7.18;;;5.70;99.90;;;;;;5093461;28;20298;-75
2023/03/06 03:47:33;;;;;;;6.30;5.70;;;5.80;99.90;;;;;;5094849;28;20344;-79
2023/03/06 03:50:00;;;;;;;7.45;5.15;;;5.80;99.90;;;;;;5093817;28;20262;-80
2023/03/06 03:52:28;;;;;;;5.55;5.05;;;5.70;99.90;;;;;;5094447;28;20688;-79
2023/03/06 03:54:55;;;;;;;5.03;4.35;;;5.70;99.90;;;;;;5094248;28;20292;-75
2023/03/06 03:57:22;;;;;;;5.63;5.10;;;5.80;99.90;;;;;;5094802;28;20530;-79
2023/03/06 03:59:49;;;;;;;5.57;3.75;;;5.80;99.90;;;;;;5093128;28;20247;-77
2023/03/06 04:02:17;;;;;;;7.05;5.15;;;5.70;99.90;;;;;;5095023;28;20220;-75
2023/03/06 04:04:44;;;;;;;4.15;3.75;;;5.80;99.90;;;;;;5094182;28;20227;-76
2023/03/06 04:07:11;;;;;;;6.38;4.22;;;5.70;99.90;;;;;;5093806;28;20234;-75
2023/03/06 04:09:39;;;;;;;5.38;4.90;;;5.70;99.90;;;;;;5094359;28;20269;-79
2023/03/06 04:12:07;;;;;;;4.43;3.42;;;5.70;99.90;;;;;;5093786;28;20250;-75
2023/03/06 04:14:34;;;;;;;3.10;2.90;;;5.70;99.90;;;;;;5093814;28;20223;-75
2023/03/06 04:17:01;;;;;;;4.57;4.03;;;5.70;99.90;;;;;;5093635;28;20231;-75
2023/03/06 04:19:28;;;;;;;4.15;3.17;;;5.60;99.90;;;;;;5093503;28;20231;-75
2023/03/06 04:21:55;;;;;;;5.32;2.92;;;5.60;99.90;;;;;;5093159;28;20243;-79
2023/03/06 04:24:25;;;;;;;3.45;3.15;;;5.60;99.90;;;;;;5094165;28;20544;-75
2023/03/06 04:26:53;;;;;;;3.75;3.42;;;5.60;99.90;;;;;;5093434;28;20268;-75
2023/03/06 04:29:20;;;;;;;3.80;3.25;;;5.60;99.90;;;;;;5093099;28;20280;-76
2023/03/06 04:31:48;;;;;;;3.78;3.05;;;5.50;99.90;;;;;;5100438;28;20231;-75
2023/03/06 04:34:15;;;;;;;3.65;3.00;;;5.50;99.90;;;;;;5106089;28;20223;-75
2023/03/06 04:36:44;;;;;;;5.18;3.45;;;5.40;99.90;;;;;;5098484;28;20222;-75
2023/03/06 04:39:12;;;;;;;4.40;3.67;;;5.40;99.90;;;;;;5103523;28;20279;-75
2023/03/06 04:41:41;;;;;;;2.85;2.55;;;5.40;99.90;;;;;;5100811;28;20223;-79
2023/03/06 04:44:09;;;;;;;2.90;2.70;;;5.40;99.90;;;;;;5098749;28;20232;-79
2023/03/06 04:46:36;;;;;;;2.47;2.28;;;5.40;99.90;;;;;;5097418;28;20553;-76
2023/03/06 04:49:04;;;;;;;2.28;2.08;;;5.40;99.90;;;;;;5095980;28;20234;-79
2023/03/06 04:51:32;;;;;;;2.25;2.05;;;5.40;99.90;;;;;;5095042;28;20238;-75
2023/03/06 04:53:59;;;;;;;2.72;2.53;;;5.40;99.90;;;;;;5094127;28;20226;-76
2023/03/06 04:56:26;;;;;;;2.70;2.50;;;5.30;99.90;;;;;;5094406;28;20681;-75
2023/03/06 04:58:53;;;;;;;2.65;2.45;;;5.30;99.90;;;;;;5092729;28;20223;-79
2023/03/06 05:01:22;;;;;;;2.50;2.30;;;5.30;99.90;;;;;;5094421;28;20231;-79
2023/03/06 05:03:49;;;;;;;2.67;2.47;;;5.30;99.90;;;;;;5094065;28;20220;-79
2023/03/06 05:06:16;;;;;;;2.20;2.00;;;5.30;99.90;;;;;;5094542;28;21331;-75
2023/03/06 05:08:43;;;;;;;2.60;2.40;;;5.30;99.90;;;;;;5093780;28;20227;-75
2023/03/06 05:11:10;;;;;;;2.50;2.30;;;5.20;99.90;;;;;;5092510;28;20231;-75
2023/03/06 05:13:37;;;;;;;2.95;2.60;;;5.20;99.90;;;;;;5093718;28;20284;-79
2023/03/06 05:16:05;;;;;;;3.58;2.60;;;5.20;99.90;;;;;;5093730;28;20281;-75
2023/03/06 05:18:35;;;;;;;2.25;2.05;;;5.20;99.90;;;;;;5093519;28;20253;-75
2023/03/06 05:21:03;;;;;;;2.75;1.95;;;5.20;99.90;;;;;;5092758;28;20617;-75
2023/03/06 05:23:32;;;;;;;2.10;2.00;;;5.20;99.90;;;;;;5093532;28;20219;-79
2023/03/06 05:25:59;;;;;;;2.25;2.15;;;5.10;99.90;;;;;;5093539;28;20227;-78
2023/03/06 05:28:27;;;;;;;3.95;3.20;;;5.10;99.90;;;;;;5093130;28;20564;-76
2023/03/06 05:30:54;;;;;;;2.45;2.35;;;5.10;99.90;;;;;;5082417;28;20227;-74
2023/03/06 05:33:23;;;;;;;3.95;2.97;;;5.10;99.90;;;;;;5091859;28;20220;-74
2023/03/06 05:35:52;;;;;;;2.70;2.50;;;5.10;99.90;;;;;;5092495;28;20219;-74
2023/03/06 05:38:19;;;;;;;2.88;2.58;;;5.10;99.90;;;;;;5092781;28;20280;-78
2023/03/06 05:40:46;;;;;;;3.13;2.83;;;5.00;99.90;;;;;;5093214;28;20726;-79
2023/03/06 05:43:13;;;;;;;2.92;2.72;;;5.00;99.90;;;;;;5091752;28;20255;-78
2023/03/06 05:45:41;;;;;;;3.05;2.65;;;5.00;99.90;;;;;;5092571;28;20219;-78
2023/03/06 05:48:08;;;;;;;2.60;2.40;;;5.00;99.90;;;;;;5092043;28;20299;-78
2023/03/06 05:50:35;;;;;;;4.35;3.80;;;5.00;99.90;;;;;;5092370;28;20257;-75
2023/03/06 05:53:03;;;;;;;4.00;3.70;;;5.00;99.90;;;;;;5091105;28;20285;-77
2023/03/06 05:55:31;;;;;;;5.35;4.85;;;5.10;99.90;;;;;;5092891;28;20603;-74
2023/03/06 05:57:57;;;;;;;3.97;3.67;;;5.00;99.90;;;;;;5091925;28;20305;-75
2023/03/06 06:00:25;;;;;;;3.13;2.92;;;5.00;99.90;;;;;;5092158;28;20681;-74
2023/03/06 06:02:52;;;;;;;3.35;3.05;;;5.00;99.90;;;;;;5092393;28;20231;-75
2023/03/06 06:05:19;;;;;;;3.28;3.00;;;5.00;99.90;;;;;;5091506;28;20258;-78
2023/03/06 06:07:46;;;;;;;3.20;2.90;;;5.00;99.90;;;;;;5092942;28;20319;-78
2023/03/06 06:10:14;;;;;;;3.40;3.10;;;5.00;99.90;;;;;;5092274;28;20281;-75
2023/03/06 06:12:41;;;;;;;3.50;3.20;;;5.00;99.90;;;;;;5092085;28;20219;-74
2023/03/06 06:15:11;;;;;;;2.50;2.30;;;5.00;99.90;;;;;;5091549;28;20704;-80
2023/03/06 06:17:38;;;;;;;2.72;2.53;;;5.00;99.90;;;;;;5094873;28;20229;-79
2023/03/06 06:20:05;;;;;;;2.67;2.20;;;5.00;99.90;;;;;;5092404;28;20235;-79
2023/03/06 06:22:36;;;;;;;2.47;2.30;;;5.00;99.90;;;;;;5093186;28;20576;-79
2023/03/06 06:25:04;;;;;;;2.47;2.17;;;4.90;99.90;;;;;;5092218;28;20257;-79
2023/03/06 06:27:32;;;;;;;2.22;2.03;;;4.90;99.90;;;;;;5090571;28;20223;-75
2023/03/06 06:29:59;;;;;;;2.65;2.45;;;4.90;99.90;;;;;;5092074;28;20227;-79
2023/03/06 06:32:29;;;;;;;3.75;3.45;;;4.90;99.90;;;;;;5092075;28;20353;-75
2023/03/06 06:34:56;;;;;;;6.32;3.90;;;4.90;99.90;;;;;;5092491;28;20261;-79
2023/03/06 06:37:24;;;;;;;4.53;4.05;;;4.90;99.90;;;;;;5091949;28;20253;-79
2023/03/06 06:39:54;;;;;;;6.18;5.38;;;4.90;99.90;;;;;;5094141;28;20223;-75
2023/03/06 06:42:21;;;;;;;7.47;5.28;;;4.90;99.90;;;;;;5091595;28;20560;-79
2023/03/06 06:44:50;;;;;;;5.20;4.22;;;4.90;99.90;;;;;;5093606;28;20282;-79
2023/03/06 06:47:17;;;;;;;7.32;5.18;;;4.90;99.90;;;;;;5092140;28;20304;-75
2023/03/06 06:49:45;;;;;;;10.32;6.13;;;4.80;99.90;;;;;;5092103;28;20668;-79
2023/03/06 06:52:12;;;;;;;6.57;4.82;;;4.90;99.90;;;;;;5082251;28;20235;-77
2023/03/06 06:54:39;;;;;;;5.78;4.95;;;4.80;99.90;;;;;;5094723;28;20296;-79
2023/03/06 06:57:06;;;;;;;7.95;5.40;;;4.80;99.90;;;;;;5091614;28;20227;-79
2023/03/06 06:59:33;;;;;;;7.40;5.07;;;4.80;99.90;;;;;;5092552;28;20223;-74
2023/03/06 07:02:01;;;;;;;7.68;5.20;;;4.80;99.90;;;;;;5092066;28;20219;-75
2023/03/06 07:04:28;;;;;;;11.80;6.68;;;4.80;99.90;;;;;;5094447;28;20269;-74
2023/03/06 07:07:03;;;;;;;9.63;6.90;;;4.80;99.90;;;;;;5096485;28;20581;-78
2023/03/06 07:09:30;;;;;;;7.65;5.30;;;4.80;99.90;;;;;;5095224;28;20325;-74
2023/03/06 07:11:57;;;;;;;5.10;3.83;;;4.80;99.90;;;;;;5095136;28;20247;-74
2023/03/06 07:14:25;;;;;;;6.25;3.72;;;4.80;99.90;;;;;;5095010;28;20235;-74
2023/03/06 07:16:52;;;;;;;4.07;3.22;;;4.80;99.90;;;;;;5095898;28;20254;-74
2023/03/06 07:19:25;;;;;;;3.38;3.05;;;4.80;99.90;;;;;;5093150;28;20567;-75
2023/03/06 07:21:52;;;;;;;4.45;3.95;;;4.80;99.90;;;;;;5097206;28;20216;-75
2023/03/06 07:24:19;;;;;;;3.65;3.33;;;4.80;99.90;;;;;;5095240;28;20268;-80
2023/03/06 07:26:46;;;;;;;3.30;2.97;;;4.80;99.90;;;;;;5096115;28;20219;-79
2023/03/06 07:29:14;;;;;;;4.65;3.03;;;4.80;99.90;;;;;;5095765;28;20238;-74
2023/03/06 07:31:41;;;;;;;3.20;2.95;;;4.80;99.90;;;;;;5095618;28;20215;-74
2023/03/06 07:34:12;;;;;;;6.10;5.50;;;4.80;99.90;;;;;;5095731;28;20223;-74
2023/03/06 07:36:41;;;;;;;11.23;9.07;;;4.80;99.90;;;;;;5096105;28;20303;-79
2023/03/06 07:39:08;;;;;;;9.70;7.43;;;4.80;99.90;;;;;;5095386;28;20231;-78
2023/03/06 07:41:35;;;;;;;8.82;6.53;;;4.90;99.90;;;;;;5096989;28;20231;-78
2023/03/06 07:44:03;;;;;;;6.97;4.68;;;4.90;99.90;;;;;;5097282;28;20269;-77
2023/03/06 07:46:30;;;;;;;6.00;4.28;;;4.90;99.90;;;;;;5098151;28;20273;-78
2023/03/06 07:48:57;;;;;;;7.70;5.38;;;4.90;99.90;;;;;;5095983;28;20303;-75
2023/03/06 07:51:25;;;;;;;6.43;4.97;;;4.90;99.90;;;;;;5098125;28;20224;-78
2023/03/06 07:53:53;;;;;;;6.20;3.80;;;4.90;99.90;;;;;;5104929;28;20227;-79
2023/03/06 07:56:20;;;;;;;3.80;3.50;;;5.00;99.90;;;;;;5102186;28;20223;-78
2023/03/06 07:58:48;;;;;;;6.15;3.33;;;5.00;99.90;;;;;;5103682;28;20223;-79
2023/03/06 08:01:17;;;;;;;3.22;3.03;;;5.00;99.90;;;;;;5102052;28;20223;-79
2023/03/06 08:03:44;;;;;;;2.85;2.58;;;5.00;99.90;;;;;;5100468;28;20234;-79
2023/03/06 08:06:13;;;;;;;2.90;2.60;;;5.10;99.90;;;;;;5097992;28;20223;-80
2023/03/06 08:08:43;;;;;;;3.08;2.42;;;5.10;99.90;;;;;;5101447;28;20231;-80
2023/03/06 08:11:13;;;;;;;3.22;2.92;;;5.10;99.90;;;;;;5098462;28;20227;-78
2023/03/06 08:13:40;;;;;;;3.35;3.05;;;5.00;99.90;;;;;;5101769;28;20265;-78
2023/03/06 08:16:08;;;;;;;2.80;2.60;;;5.10;99.90;;;;;;5099646;28;20249;-79
2023/03/06 08:18:36;;;;;;;3.47;3.28;;;5.10;99.90;;;;;;5096216;28;20239;-75
2023/03/06 08:21:05;;;;;;;3.25;2.53;;;5.10;99.90;;;;;;5092116;28;20223;-75
2023/03/06 08:23:34;;;;;;;3.00;2.33;;;5.10;99.90;;;;;;5097342;28;20249;-74
2023/03/06 08:26:04;;;;;;;2.63;2.42;;;5.20;99.90;;;;;;5096940;28;20219;-75
2023/03/06 08:28:33;;;;;;;4.80;3.45;;;5.20;99.90;;;;;;5094443;28;20675;-75
2023/03/06 08:31:21;;;;;;;2.80;2.58;;;5.20;99.90;;;;;;5094876;28;20227;-75
2023/03/06 08:33:48;;;;;;;4.18;3.00;;;5.20;99.90;;;;;;5086960;28;20315;-74
2023/03/06 08:36:17;;;;;;;4.53;3.17;;;5.20;99.90;;;;;;5074654;28;20242;-74
2023/03/06 08:38:44;;;;;;;5.78;4.15;;;5.30;99.90;;;;;;5079285;28;20231;-74
2023/03/06 08:41:11;;;;;;;4.75;3.70;;;5.20;99.90;;;;;;5089493;28;20264;-78
2023/03/06 08:43:39;;;;;;;3.97;2.80;;;5.30;99.90;;;;;;5076601;28;20232;-78
2023/03/06 08:46:07;;;;;;;2.80;2.50;;;5.30;99.90;;;;;;5073666;28;20228;-78
2023/03/06 08:48:34;;;;;;;3.40;2.85;;;5.30;99.90;;;;;;5071682;28;20251;-74
2023/03/06 08:51:01;;;;;;;5.00;4.05;;;5.30;99.90;;;;;;5071623;28;20703;-74
2023/03/06 08:53:28;;;;;;;3.95;3.30;;;5.30;99.90;;;;;;5070785;28;20693;-75
2023/03/06 08:55:55;;;;;;;3.95;3.15;;;5.30;99.90;;;;;;5071197;28;20241;-78
2023/03/06 08:58:22;;;;;;;5.25;3.67;;;5.40;99.90;;;;;;5072305;28;20313;-78
2023/03/06 09:00:51;;;;;;;3.75;3.10;;;5.40;99.90;;;;;;5074122;28;20250;-79
2023/03/06 09:03:18;;;;;;;3.35;2.50;;;5.40;99.90;;;;;;5074628;28;20257;-78
2023/03/06 09:05:46;;;;;;;3.60;2.90;;;5.40;99.90;;;;;;5075452;28;20228;-78
2023/03/06 09:08:13;;;;;;;4.90;2.65;;;5.40;99.90;;;;;;5074332;28;20228;-75
2023/03/06 09:10:40;;;;;;;4.30;2.45;;;5.40;99.90;;;;;;5073891;28;20239;-74
2023/03/06 09:13:07;;;;;;;2.85;2.60;;;5.40;99.90;;;;;;5073470;28;20242;-78
2023/03/06 09:15:33;;;;;;;2.63;2.42;;;5.40;99.90;;;;;;5072229;28;20285;-75
2023/03/06 09:18:02;;;;;;;2.60;2.40;;;5.40;99.90;;;;;;5073232;28;20243;-79
2023/03/06 09:20:29;;;;;;;3.28;2.80;;;5.50;99.90;;;;;;5074728;28;20327;-79
2023/03/06 09:22:56;;;;;;;3.47;2.88;;;5.50;99.90;;;;;;5075956;28;20224;-74
2023/03/06 09:25:23;;;;;;;4.15;3.30;;;5.50;99.90;;;;;;5074552;28;20234;-74
2023/03/06 09:27:51;;;;;;;3.05;2.72;;;5.50;99.90;;;;;;5072204;28;20243;-74
2023/03/06 09:30:19;;;;;;;6.68;2.60;;;5.50;99.90;;;;;;5064048;28;20540;-75
2023/03/06 09:32:46;;;;;;;4.95;2.53;;;5.50;99.90;;;;;;5072833;28;20283;-78
2023/03/06 09:35:17;;;;;;;3.45;2.90;;;5.60;99.90;;;;;;5075192;28;20291;-74
2023/03/06 09:40:34;;;;;;;7.57;4.82;;;5.60;99.90;;;;;;5425417;22;20230;-78
2023/03/06 09:43:01;;;;;;;6.72;4.93;;;5.60;99.90;;;;;;5093399;28;20251;-75
2023/03/06 09:45:37;;;;;;;5.90;5.13;;;5.60;99.90;;;;;;5092644;28;20536;-79
2023/03/06 09:48:15;;;;;;;4.45;3.40;;;5.60;99.90;;;;;;5092851;28;20219;-75
2023/03/06 09:50:59;;;;;;;4.90;2.53;;;5.60;99.90;;;;;;5092112;28;20219;-78
2023/03/06 09:53:39;;;;;;;4.75;2.25;;;5.70;99.90;;;;;;5090009;28;20253;-75
2023/03/06 09:56:12;;;;;;;3.53;2.30;;;5.70;99.90;;;;;;5092203;28;20255;-75
2023/03/06 09:58:44;;;;;;;4.97;2.70;;;5.70;99.90;;;;;;5092698;28;20231;-78
2023/03/06 10:01:17;;;;;;;3.10;2.80;;;5.70;99.90;;;;;;5095274;28;20575;-79
2023/03/06 10:03:49;;;;;;;3.10;2.70;;;5.70;99.90;;;;;;5091562;28;20223;-79
2023/03/06 10:06:24;;;;;;;3.90;2.38;;;5.70;99.90;;;;;;5093187;28;20284;-79
2023/03/06 10:09:00;;;;;;;3.50;2.75;;;5.70;99.90;;;;;;5091438;28;20671;-75
2023/03/06 10:11:34;;;;;;;5.18;2.70;;;5.70;99.90;;;;;;5091198;28;20240;-75
2023/03/06 10:14:14;;;;;;;3.00;2.80;;;5.70;99.90;;;;;;5090862;28;20287;-75
2023/03/06 10:16:41;;;;;;;3.03;2.83;;;5.70;99.90;;;;;;5090629;28;20239;-78
2023/03/06 10:19:15;;;;;;;3.55;3.25;;;5.70;99.90;;;;;;5092031;28;20276;-78
2023/03/06 10:21:56;;;;;;;3.28;2.70;;;5.70;99.90;;;;;;5092109;28;20223;-75
2023/03/06 10:24:45;;;;;;;5.00;2.83;;;5.70;99.90;;;;;;5091818;28;20227;-75
2023/03/06 10:27:22;;;;;;;3.17;2.88;;;5.70;99.90;;;;;;5081790;28;20312;-76
2023/03/06 10:29:56;;;;;;;3.92;3.03;;;5.70;99.90;;;;;;5091559;28;20225;-75
2023/03/06 10:32:31;;;;;;;3.00;2.80;;;5.70;99.90;;;;;;5090602;28;20219;-75
2023/03/06 10:35:00;;;;;;;3.67;3.03;;;5.70;99.90;;;;;;5092029;28;20247;-75
2023/03/06 10:37:29;;;;;;;7.10;3.35;;;5.70;99.90;;;;;;5091588;28;20229;-75
2023/03/06 10:40:02;;;;;;;3.22;2.70;;;5.70;99.90;;;;;;5095440;28;20715;-79
2023/03/06 10:42:29;;;;;;;3.30;2.70;;;5.80;99.90;;;;;;5094884;28;20223;-79
2023/03/06 10:45:09;;;;;;;3.50;3.05;;;5.80;99.90;;;;;;5096280;28;20223;-79
2023/03/06 10:47:38;;;;;;;2.58;2.38;;;5.80;99.90;;;;;;5094333;28;20557;-79
2023/03/06 10:50:19;;;;;;;2.67;2.45;;;5.80;99.90;;;;;;5095893;28;20228;-78
2023/03/06 10:53:00;;;;;;;5.05;2.83;;;5.80;99.90;;;;;;5095362;28;20227;-78
2023/03/06 10:55:30;;;;;;;4.65;2.60;;;5.80;99.90;;;;;;5094745;28;20280;-79
2023/03/06 10:57:57;;;;;;;6.60;3.00;;;5.80;99.90;;;;;;5095961;28;20223;-74
2023/03/06 11:00:29;;;;;;;5.15;3.88;;;5.80;99.90;;;;;;5094705;28;20688;-78
2023/03/06 11:03:17;;;;;;;4.28;2.95;;;5.80;99.90;;;;;;5095023;28;20360;-75
2023/03/06 11:06:02;;;;;;;3.20;2.90;;;5.80;99.90;;;;;;5095069;28;20250;-79
2023/03/06 11:08:32;;;;;;;2.80;2.60;;;5.80;99.90;;;;;;5093485;28;20704;-79
2023/03/06 11:11:01;;;;;;;3.70;2.60;;;5.80;99.90;;;;;;5095504;28;20224;-75
2023/03/06 11:13:30;;;;;;;4.70;3.22;;;5.90;99.90;;;;;;5094173;28;20955;-75
2023/03/06 11:16:07;;;;;;;3.15;2.90;;;5.90;99.90;;;;;;5094906;28;20219;-79
2023/03/06 11:18:41;;;;;;;4.65;2.92;;;5.90;99.90;;;;;;5094615;28;20299;-75
2023/03/06 11:21:30;;;;;;;3.10;2.90;;;6.00;99.90;;;;;;5095098;28;20546;-79
2023/03/06 11:24:12;;;;;;;3.20;2.70;;;6.00;99.90;;;;;;5087105;28;20568;-75
2023/03/06 11:26:44;;;;;;;3.00;2.70;;;6.00;99.90;;;;;;5095100;28;20223;-75
2023/03/06 11:29:30;;;;;;;5.07;3.00;;;6.00;99.90;;;;;;5094683;28;20575;-79
2023/03/06 11:32:04;;;;;;;2.67;2.47;;;6.10;99.90;;;;;;5085865;28;20223;-78
2023/03/06 11:34:40;;;;;;;2.55;2.35;;;6.10;99.90;;;;;;5095073;28;20358;-75
2023/03/06 11:37:26;;;;;;;2.97;2.60;;;6.10;99.90;;;;;;5095240;28;20227;-79
2023/03/06 11:40:05;;;;;;;3.63;2.80;;;6.10;99.90;;;;;;5103856;28;20290;-79
2023/03/06 11:42:37;;;;;;;3.33;2.92;;;6.20;99.90;;;;;;5106377;28;20246;-75
2023/03/06 11:45:22;;;;;;;5.45;4.18;;;6.20;99.90;;;;;;5111979;28;20207;-79
2023/03/06 11:47:54;;;;;;;6.63;3.72;;;6.30;99.90;;;;;;5099557;28;20250;-75
2023/03/06 11:50:27;;;;;;;3.97;3.25;;;6.30;99.90;;;;;;5109017;28;20219;-75
2023/03/06 11:52:58;;;;;;;3.17;2.95;;;6.30;99.90;;;;;;5098535;28;20222;-79
2023/03/06 11:55:39;;;;;;;3.65;2.90;;;6.40;99.90;;;;;;5095946;28;20279;-75
2023/03/06 11:58:39;;;;;;;4.07;3.58;;;6.40;99.90;;;;;;5096619;28;20227;-76
2023/03/06 12:01:09;;;;;;;5.00;2.80;;;6.40;99.90;;;;;;5091549;28;20242;-74
2023/03/06 12:04:08;;;;;;;6.35;3.33;;;6.40;99.90;;;;;;5095327;28;20230;-78
2023/03/06 12:06:49;;;;;;;3.70;2.70;;;6.50;99.90;;;;;;5069134;28;20219;-78
2023/03/06 12:09:25;;;;;;;3.63;2.85;;;6.50;99.90;;;;;;5093424;28;20245;-75
2023/03/06 12:12:10;;;;;;;3.40;3.15;;;6.50;99.90;;;;;;5093495;28;20219;-75
2023/03/06 12:14:55;;;;;;;4.30;2.90;;;6.50;99.90;;;;;;5093443;28;20219;-75
2023/03/06 12:17:31;;;;;;;2.88;2.53;;;6.50;99.90;;;;;;5094212;28;20263;-75
2023/03/06 12:20:39;;;;;;;5.93;2.67;;;6.50;99.90;;;;;;5093969;28;20238;-75
2023/03/06 12:23:15;;;;;;;5.47;2.78;;;6.50;99.90;;;;;;5093651;28;20219;-75
2023/03/06 12:25:43;;;;;;;3.65;2.55;;;6.50;99.90;;;;;;5093995;28;20279;-75
2023/03/06 12:28:35;;;;;;;4.30;3.90;;;6.50;99.90;;;;;;5093422;28;20653;-75
2023/03/06 12:31:43;;;;;;;3.45;3.15;;;6.60;99.90;;;;;;5092973;28;20231;-75
2023/03/06 12:34:33;;;;;;;5.45;3.33;;;6.60;99.90;;;;;;5093425;28;20215;-79
2023/03/06 12:37:11;;;;;;;3.08;2.55;;;6.60;99.90;;;;;;5092300;28;20228;-79
2023/03/06 12:40:05;;;;;;;3.88;2.95;;;6.60;99.90;;;;;;5092503;28;20587;-78
2023/03/06 12:42:44;;;;;;;6.82;3.05;;;6.60;99.90;;;;;;5093686;28;20238;-74
2023/03/06 12:45:24;;;;;;;5.10;3.20;;;6.60;99.90;;;;;;5093660;28;20223;-74
2023/03/06 12:47:55;;;;;;;2.85;1.98;;;6.60;99.90;;;;;;5080341;28;20227;-74
2023/03/06 12:50:26;;;;;;;2.45;2.20;;;6.60;99.90;;;;;;5093250;28;20327;-78
2023/03/06 12:52:55;;;;;;;2.63;2.20;;;6.60;99.90;;;;;;5092925;28;20227;-78
2023/03/06 12:55:23;;;;;;;2.63;2.42;;;6.70;99.90;;;;;;5093715;28;20228;-78
2023/03/06 12:57:51;;;;;;;7.57;3.10;;;6.70;99.90;;;;;;5084091;28;20227;-78
2023/03/06 13:00:58;;;;;;;2.65;2.45;;;6.70;99.90;;;;;;5093380;28;20303;-78
2023/03/06 13:03:31;;;;;;;2.47;2.28;;;6.70;99.90;;;;;;5093197;28;20656;-75
2023/03/06 13:06:25;;;;;;;3.28;2.00;;;6.80;99.90;;;;;;5093851;28;20215;-75
2023/03/06 13:09:14;;;;;;;2.08;1.88;;;6.80;99.90;;;;;;5092712;28;20239;-74
2023/03/06 13:11:57;;;;;;;2.00;1.70;;;6.80;99.90;;;;;;5091732;28;20280;-74
2023/03/06 13:14:28;;;;;;;1.75;1.48;;;6.80;99.90;;;;;;5092801;28;20223;-74
2023/03/06 13:17:27;;;;;;;1.60;1.50;;;6.80;99.90;;;;;;5092835;28;20624;-74
2023/03/06 13:20:29;;;;;;;2.80;2.20;;;6.80;99.90;;;;;;5092161;28;20226;-78